EWG2PM EGLL-EDDH
Flight info
| Callsign | EWG2PM |
|---|---|
| Flight time | N/A |
| Altitude | 37000 |
| Route | BPK Q295 SOMVA DCT MAVAS DCT VALAM DCT GASTU DCT OSTOR/N0371F230 T904 RIBSO RIBSO3P/23 |
| Aircraft | A319/M-SDE3FGHIRWY/LB1 |
Departure
| Time | N/A |
|---|---|
| Airport | London Heathrow Airport (EGLL) |
Arrival
| Time | 2026-04-24 19:04 |
|---|---|
| Airport | Hamburg Helmut Schmidt Airport (EDDH) |
| Time | Latitude | Longitude | Altitude | Speed | Heading |
|---|---|---|---|---|---|
| 2026-04-24 18:54 | 53.85935 | 9.72722 | 6857 ft | 266 kts | 73° |
| 2026-04-24 18:55 | 53.86617 | 9.78659 | 6135 ft | 264 kts | 77° |
| 2026-04-24 18:55 | 53.86608 | 9.81876 | 5615 ft | 274 kts | 92° |
| 2026-04-24 18:55 | 53.86379 | 9.85041 | 5194 ft | 274 kts | 92° |
| 2026-04-24 18:56 | 53.86151 | 9.88276 | 4817 ft | 272 kts | 92° |
| 2026-04-24 18:56 | 53.85930 | 9.91418 | 4567 ft | 272 kts | 92° |
| 2026-04-24 18:56 | 53.85706 | 9.94599 | 4309 ft | 271 kts | 91° |
| 2026-04-24 18:56 | 53.85481 | 9.97768 | 4078 ft | 270 kts | 92° |
| 2026-04-24 18:57 | 53.85258 | 10.00925 | 3989 ft | 269 kts | 91° |
| 2026-04-24 18:57 | 53.85034 | 10.04077 | 3998 ft | 270 kts | 91° |
| 2026-04-24 18:57 | 53.84806 | 10.07238 | 4001 ft | 270 kts | 91° |
| 2026-04-24 18:57 | 53.84578 | 10.10393 | 3999 ft | 270 kts | 91° |
| 2026-04-24 18:58 | 53.84354 | 10.13549 | 3992 ft | 270 kts | 91° |
| 2026-04-24 18:58 | 53.84134 | 10.16666 | 3986 ft | 259 kts | 91° |
| 2026-04-24 18:58 | 53.83734 | 10.19547 | 3976 ft | 248 kts | 113° |
| 2026-04-24 18:58 | 53.82635 | 10.21713 | 4001 ft | 242 kts | 140° |
| 2026-04-24 18:59 | 53.81282 | 10.23405 | 3996 ft | 242 kts | 144° |
| 2026-04-24 18:59 | 53.79841 | 10.24861 | 3975 ft | 242 kts | 163° |
| 2026-04-24 18:59 | 53.78211 | 10.25081 | 3783 ft | 234 kts | 195° |
| 2026-04-24 18:59 | 53.76654 | 10.24370 | 3488 ft | 231 kts | 204° |
| 2026-04-24 19:00 | 53.75226 | 10.23304 | 3337 ft | 216 kts | 223° |
| 2026-04-24 19:00 | 53.74220 | 10.21601 | 3278 ft | 196 kts | 240° |
| 2026-04-24 19:00 | 53.73362 | 10.19845 | 3108 ft | 192 kts | 240° |
| 2026-04-24 19:00 | 53.72521 | 10.18126 | 2878 ft | 188 kts | 240° |
| 2026-04-24 19:01 | 53.71691 | 10.16430 | 2634 ft | 187 kts | 239° |
| 2026-04-24 19:01 | 53.70872 | 10.14759 | 2385 ft | 182 kts | 239° |
| 2026-04-24 19:01 | 53.70078 | 10.13142 | 2146 ft | 176 kts | 238° |
| 2026-04-24 19:01 | 53.69319 | 10.11595 | 1927 ft | 171 kts | 238° |
| 2026-04-24 19:02 | 53.68813 | 10.10567 | 1766 ft | 162 kts | 238° |
| 2026-04-24 19:02 | 53.67936 | 10.08792 | 1475 ft | 137 kts | 239° |
| 2026-04-24 19:02 | 53.67355 | 10.07609 | 1284 ft | 127 kts | 239° |
| 2026-04-24 19:02 | 53.66797 | 10.06471 | 1118 ft | 124 kts | 239° |
| 2026-04-24 19:03 | 53.66255 | 10.05366 | 941 ft | 120 kts | 238° |
| 2026-04-24 19:03 | 53.65724 | 10.04285 | 766 ft | 119 kts | 237° |
| 2026-04-24 19:03 | 53.65191 | 10.03201 | 596 ft | 120 kts | 237° |
| 2026-04-24 19:03 | 53.64672 | 10.02126 | 436 ft | 117 kts | 236° |
| 2026-04-24 19:04 | 53.64144 | 10.01085 | 275 ft | 115 kts | 237° |
| 2026-04-24 19:04 | 53.63638 | 10.00047 | 113 ft | 114 kts | 236° |
| 2026-04-24 19:04 | 53.63164 | 9.99082 | 53 ft | 89 kts | 230° |
| 2026-04-24 19:04 | 53.62877 | 9.98502 | 52 ft | 40 kts | 230° |
| 2026-04-24 19:05 | 53.62768 | 9.98356 | 53 ft | 13 kts | 182° |
| 2026-04-24 19:05 | 53.62690 | 9.98426 | 52 ft | 12 kts | 139° |
| 2026-04-24 19:05 | 53.62687 | 9.98550 | 49 ft | 13 kts | 53° |
| 2026-04-24 19:05 | 53.62747 | 9.98670 | 51 ft | 14 kts | 49° |
| 2026-04-24 19:06 | 53.62812 | 9.98804 | 51 ft | 16 kts | 51° |
| 2026-04-24 19:06 | 53.62884 | 9.98947 | 51 ft | 17 kts | 50° |
| 2026-04-24 19:06 | 53.62962 | 9.99106 | 51 ft | 18 kts | 50° |
| 2026-04-24 19:06 | 53.63029 | 9.99243 | 51 ft | 14 kts | 51° |
| 2026-04-24 19:07 | 53.63072 | 9.99341 | 51 ft | 5 kts | 55° |
| 2026-04-24 19:07 | 53.63081 | 9.99363 | 51 ft | 0 kts | 54° |
| 2026-04-24 19:08 | 53.63082 | 9.99363 | 51 ft | 1 kts | 54° |
| 2026-04-24 19:08 | 53.63092 | 9.99388 | 51 ft | 5 kts | 55° |
| 2026-04-24 19:09 | 53.63123 | 9.99466 | 52 ft | 11 kts | 56° |
| 2026-04-24 19:09 | 53.63180 | 9.99587 | 51 ft | 13 kts | 49° |
| 2026-04-24 19:09 | 53.63227 | 9.99686 | 51 ft | 9 kts | 62° |
| 2026-04-24 19:09 | 53.63208 | 9.99772 | 51 ft | 9 kts | 147° |
| 2026-04-24 19:10 | 53.63147 | 9.99830 | 51 ft | 11 kts | 139° |
| 2026-04-24 19:10 | 53.63167 | 9.99939 | 51 ft | 11 kts | 49° |
| 2026-04-24 19:10 | 53.63219 | 10.00046 | 51 ft | 12 kts | 55° |
| 2026-04-24 19:10 | 53.63205 | 10.00169 | 51 ft | 11 kts | 147° |
| 2026-04-24 19:11 | 53.63143 | 10.00188 | 51 ft | 9 kts | 175° |
| 2026-04-24 19:11 | 53.63080 | 10.00190 | 51 ft | 9 kts | 192° |
| 2026-04-24 19:11 | 53.63028 | 10.00195 | 51 ft | 6 kts | 134° |
| 2026-04-24 19:11 | 53.63010 | 10.00275 | 48 ft | 8 kts | 107° |
| 2026-04-24 19:12 | 53.62999 | 10.00332 | 51 ft | 2 kts | 108° |
| 2026-04-24 19:12 | 53.62998 | 10.00339 | 51 ft | 0 kts | 108° |